sensor_id;sensor_type;location;lat;lon;timestamp;P1;durP1;ratioP1;P2;durP2;ratioP2
41333;SDS011;27078;46.428;6.256;2024-01-10T00:00:45;33.63;;;16.17;;
41333;SDS011;27078;46.428;6.256;2024-01-10T00:03:11;33.72;;;16.42;;
41333;SDS011;27078;46.428;6.256;2024-01-10T00:05:36;31.55;;;15.32;;
41333;SDS011;27078;46.428;6.256;2024-01-10T00:08:05;32.70;;;16.30;;
41333;SDS011;27078;46.428;6.256;2024-01-10T00:10:31;33.17;;;16.23;;
41333;SDS011;27078;46.428;6.256;2024-01-10T00:12:57;33.90;;;16.58;;
41333;SDS011;27078;46.428;6.256;2024-01-10T00:15:22;32.08;;;15.95;;
41333;SDS011;27078;46.428;6.256;2024-01-10T00:17:47;33.90;;;16.35;;
41333;SDS011;27078;46.428;6.256;2024-01-10T00:20:13;34.58;;;16.67;;
41333;SDS011;27078;46.428;6.256;2024-01-10T00:22:38;36.92;;;17.33;;
41333;SDS011;27078;46.428;6.256;2024-01-10T00:25:04;31.58;;;15.20;;
41333;SDS011;27078;46.428;6.256;2024-01-10T00:27:29;33.13;;;16.30;;
41333;SDS011;27078;46.428;6.256;2024-01-10T00:29:54;34.58;;;16.02;;
41333;SDS011;27078;46.428;6.256;2024-01-10T00:32:21;33.35;;;15.55;;
41333;SDS011;27078;46.428;6.256;2024-01-10T00:34:47;30.45;;;14.65;;
41333;SDS011;27078;46.428;6.256;2024-01-10T00:37:12;29.30;;;14.27;;
41333;SDS011;27078;46.428;6.256;2024-01-10T00:39:37;28.70;;;13.98;;
41333;SDS011;27078;46.428;6.256;2024-01-10T00:42:03;32.17;;;15.05;;
41333;SDS011;27078;46.428;6.256;2024-01-10T00:44:32;33.28;;;15.27;;
41333;SDS011;27078;46.428;6.256;2024-01-10T00:46:57;28.73;;;14.30;;
41333;SDS011;27078;46.428;6.256;2024-01-10T00:49:23;32.10;;;14.85;;
41333;SDS011;27078;46.428;6.256;2024-01-10T00:51:48;31.58;;;14.93;;
41333;SDS011;27078;46.428;6.256;2024-01-10T00:54:13;31.38;;;14.75;;
41333;SDS011;27078;46.428;6.256;2024-01-10T00:56:39;28.90;;;14.88;;
41333;SDS011;27078;46.428;6.256;2024-01-10T00:59:04;32.05;;;15.43;;
41333;SDS011;27078;46.428;6.256;2024-01-10T01:01:30;32.05;;;14.98;;
41333;SDS011;27078;46.428;6.256;2024-01-10T01:03:55;29.90;;;14.75;;
41333;SDS011;27078;46.428;6.256;2024-01-10T01:06:20;30.60;;;15.13;;
41333;SDS011;27078;46.428;6.256;2024-01-10T01:08:46;29.02;;;14.60;;
41333;SDS011;27078;46.428;6.256;2024-01-10T01:11:11;32.50;;;15.48;;
41333;SDS011;27078;46.428;6.256;2024-01-10T01:13:39;33.08;;;15.82;;
41333;SDS011;27078;46.428;6.256;2024-01-10T01:16:07;34.17;;;15.95;;
41333;SDS011;27078;46.428;6.256;2024-01-10T01:18:32;31.42;;;15.20;;
41333;SDS011;27078;46.428;6.256;2024-01-10T01:20:58;32.40;;;15.32;;
41333;SDS011;27078;46.428;6.256;2024-01-10T01:23:23;35.88;;;16.13;;
41333;SDS011;27078;46.428;6.256;2024-01-10T01:25:49;34.75;;;16.30;;
41333;SDS011;27078;46.428;6.256;2024-01-10T01:28:18;33.50;;;15.95;;
41333;SDS011;27078;46.428;6.256;2024-01-10T01:30:44;33.50;;;16.35;;
41333;SDS011;27078;46.428;6.256;2024-01-10T01:33:09;32.90;;;16.35;;
41333;SDS011;27078;46.428;6.256;2024-01-10T01:35:34;32.00;;;15.32;;
41333;SDS011;27078;46.428;6.256;2024-01-10T01:38:00;32.83;;;15.52;;
41333;SDS011;27078;46.428;6.256;2024-01-10T01:40:25;34.67;;;16.40;;
41333;SDS011;27078;46.428;6.256;2024-01-10T01:42:54;31.65;;;15.95;;
41333;SDS011;27078;46.428;6.256;2024-01-10T01:45:23;33.28;;;16.25;;
41333;SDS011;27078;46.428;6.256;2024-01-10T01:47:49;32.85;;;15.80;;
41333;SDS011;27078;46.428;6.256;2024-01-10T01:50:15;32.55;;;15.82;;
41333;SDS011;27078;46.428;6.256;2024-01-10T01:52:41;33.38;;;16.23;;
41333;SDS011;27078;46.428;6.256;2024-01-10T01:55:11;33.20;;;15.63;;
41333;SDS011;27078;46.428;6.256;2024-01-10T01:57:37;33.90;;;15.82;;
41333;SDS011;27078;46.428;6.256;2024-01-10T02:00:06;32.42;;;15.55;;
41333;SDS011;27078;46.428;6.256;2024-01-10T02:02:33;32.35;;;15.38;;
41333;SDS011;27078;46.428;6.256;2024-01-10T02:05:00;33.88;;;16.50;;
41333;SDS011;27078;46.428;6.256;2024-01-10T02:07:26;34.20;;;16.95;;
41333;SDS011;27078;46.428;6.256;2024-01-10T02:09:52;35.85;;;16.15;;
41333;SDS011;27078;46.428;6.256;2024-01-10T02:12:17;34.65;;;17.02;;
41333;SDS011;27078;46.428;6.256;2024-01-10T02:14:43;35.95;;;17.00;;
41333;SDS011;27078;46.428;6.256;2024-01-10T02:17:11;37.42;;;17.88;;
41333;SDS011;27078;46.428;6.256;2024-01-10T02:19:38;35.88;;;17.58;;
41333;SDS011;27078;46.428;6.256;2024-01-10T02:22:03;39.40;;;18.17;;
41333;SDS011;27078;46.428;6.256;2024-01-10T02:24:29;38.15;;;17.83;;
41333;SDS011;27078;46.428;6.256;2024-01-10T02:26:55;37.42;;;18.05;;
41333;SDS011;27078;46.428;6.256;2024-01-10T02:29:20;39.85;;;18.77;;
41333;SDS011;27078;46.428;6.256;2024-01-10T02:31:46;37.78;;;18.17;;
41333;SDS011;27078;46.428;6.256;2024-01-10T02:34:14;34.60;;;16.50;;
41333;SDS011;27078;46.428;6.256;2024-01-10T02:36:40;35.03;;;16.85;;
41333;SDS011;27078;46.428;6.256;2024-01-10T02:39:05;38.80;;;18.05;;
41333;SDS011;27078;46.428;6.256;2024-01-10T02:41:31;36.80;;;18.55;;
41333;SDS011;27078;46.428;6.256;2024-01-10T02:43:57;37.97;;;17.73;;
41333;SDS011;27078;46.428;6.256;2024-01-10T02:46:25;34.95;;;17.08;;
41333;SDS011;27078;46.428;6.256;2024-01-10T02:48:53;38.80;;;17.90;;
41333;SDS011;27078;46.428;6.256;2024-01-10T02:51:19;40.40;;;18.50;;
41333;SDS011;27078;46.428;6.256;2024-01-10T02:53:50;41.85;;;18.35;;
41333;SDS011;27078;46.428;6.256;2024-01-10T02:56:15;39.60;;;18.38;;
41333;SDS011;27078;46.428;6.256;2024-01-10T02:58:41;39.22;;;18.60;;
41333;SDS011;27078;46.428;6.256;2024-01-10T03:01:06;38.92;;;17.95;;
41333;SDS011;27078;46.428;6.256;2024-01-10T03:03:35;35.67;;;17.38;;
41333;SDS011;27078;46.428;6.256;2024-01-10T03:06:04;38.83;;;18.60;;
41333;SDS011;27078;46.428;6.256;2024-01-10T03:08:29;40.67;;;19.48;;
41333;SDS011;27078;46.428;6.256;2024-01-10T03:10:55;36.70;;;18.75;;
41333;SDS011;27078;46.428;6.256;2024-01-10T03:13:20;37.60;;;19.20;;
41333;SDS011;27078;46.428;6.256;2024-01-10T03:15:45;36.45;;;18.42;;
41333;SDS011;27078;46.428;6.256;2024-01-10T03:18:11;35.53;;;17.70;;
41333;SDS011;27078;46.428;6.256;2024-01-10T03:20:37;35.85;;;17.95;;
41333;SDS011;27078;46.428;6.256;2024-01-10T03:23:02;36.83;;;17.92;;
41333;SDS011;27078;46.428;6.256;2024-01-10T03:25:27;33.08;;;16.27;;
41333;SDS011;27078;46.428;6.256;2024-01-10T03:27:53;31.90;;;16.17;;
41333;SDS011;27078;46.428;6.256;2024-01-10T03:30:18;32.55;;;16.48;;
41333;SDS011;27078;46.428;6.256;2024-01-10T03:32:44;30.83;;;15.73;;
41333;SDS011;27078;46.428;6.256;2024-01-10T03:35:10;32.03;;;16.02;;
41333;SDS011;27078;46.428;6.256;2024-01-10T03:37:35;32.03;;;15.65;;
41333;SDS011;27078;46.428;6.256;2024-01-10T03:40:04;30.70;;;15.75;;
41333;SDS011;27078;46.428;6.256;2024-01-10T03:42:29;31.48;;;16.38;;
41333;SDS011;27078;46.428;6.256;2024-01-10T03:44:55;32.15;;;15.48;;
41333;SDS011;27078;46.428;6.256;2024-01-10T03:47:20;33.90;;;16.83;;
41333;SDS011;27078;46.428;6.256;2024-01-10T03:49:45;31.60;;;15.85;;
41333;SDS011;27078;46.428;6.256;2024-01-10T03:52:11;31.60;;;16.30;;
41333;SDS011;27078;46.428;6.256;2024-01-10T03:54:36;32.20;;;16.38;;
41333;SDS011;27078;46.428;6.256;2024-01-10T03:57:04;33.72;;;16.77;;
41333;SDS011;27078;46.428;6.256;2024-01-10T03:59:29;31.48;;;16.08;;
41333;SDS011;27078;46.428;6.256;2024-01-10T04:01:54;34.33;;;16.45;;
41333;SDS011;27078;46.428;6.256;2024-01-10T04:04:20;32.25;;;16.08;;
41333;SDS011;27078;46.428;6.256;2024-01-10T04:06:45;32.70;;;16.08;;
41333;SDS011;27078;46.428;6.256;2024-01-10T04:09:11;30.67;;;15.20;;
41333;SDS011;27078;46.428;6.256;2024-01-10T04:11:37;30.38;;;15.32;;
41333;SDS011;27078;46.428;6.256;2024-01-10T04:14:03;31.30;;;15.80;;
41333;SDS011;27078;46.428;6.256;2024-01-10T04:16:29;32.15;;;16.05;;
41333;SDS011;27078;46.428;6.256;2024-01-10T04:18:54;29.95;;;14.98;;
41333;SDS011;27078;46.428;6.256;2024-01-10T04:21:19;31.42;;;15.50;;
41333;SDS011;27078;46.428;6.256;2024-01-10T04:23:45;35.90;;;17.95;;
41333;SDS011;27078;46.428;6.256;2024-01-10T04:26:11;30.25;;;15.57;;
41333;SDS011;27078;46.428;6.256;2024-01-10T04:28:36;30.38;;;15.75;;
41333;SDS011;27078;46.428;6.256;2024-01-10T04:31:05;31.70;;;15.75;;
41333;SDS011;27078;46.428;6.256;2024-01-10T04:33:30;28.70;;;14.82;;
41333;SDS011;27078;46.428;6.256;2024-01-10T04:35:55;31.48;;;14.82;;
41333;SDS011;27078;46.428;6.256;2024-01-10T04:38:21;30.55;;;14.65;;
41333;SDS011;27078;46.428;6.256;2024-01-10T04:40:46;29.33;;;15.15;;
41333;SDS011;27078;46.428;6.256;2024-01-10T04:43:11;31.10;;;15.60;;
41333;SDS011;27078;46.428;6.256;2024-01-10T04:45:37;27.20;;;14.43;;
41333;SDS011;27078;46.428;6.256;2024-01-10T04:48:02;29.55;;;15.32;;
41333;SDS011;27078;46.428;6.256;2024-01-10T04:50:28;30.60;;;14.95;;
41333;SDS011;27078;46.428;6.256;2024-01-10T04:52:53;41.35;;;17.95;;
41333;SDS011;27078;46.428;6.256;2024-01-10T04:55:18;36.38;;;17.65;;
41333;SDS011;27078;46.428;6.256;2024-01-10T04:57:43;37.03;;;17.45;;
41333;SDS011;27078;46.428;6.256;2024-01-10T05:00:09;38.40;;;17.52;;
41333;SDS011;27078;46.428;6.256;2024-01-10T05:02:35;32.22;;;16.10;;
41333;SDS011;27078;46.428;6.256;2024-01-10T05:05:00;32.72;;;16.25;;
41333;SDS011;27078;46.428;6.256;2024-01-10T05:07:26;31.83;;;15.88;;
41333;SDS011;27078;46.428;6.256;2024-01-10T05:09:51;33.92;;;16.50;;
41333;SDS011;27078;46.428;6.256;2024-01-10T05:12:16;31.52;;;15.70;;
41333;SDS011;27078;46.428;6.256;2024-01-10T05:14:42;30.63;;;15.25;;
41333;SDS011;27078;46.428;6.256;2024-01-10T05:17:07;32.72;;;15.70;;
41333;SDS011;27078;46.428;6.256;2024-01-10T05:19:32;27.75;;;15.00;;
41333;SDS011;27078;46.428;6.256;2024-01-10T05:21:58;29.20;;;14.82;;
41333;SDS011;27078;46.428;6.256;2024-01-10T05:24:23;30.33;;;14.93;;
41333;SDS011;27078;46.428;6.256;2024-01-10T05:26:49;28.55;;;14.88;;
41333;SDS011;27078;46.428;6.256;2024-01-10T05:29:16;30.20;;;15.82;;
41333;SDS011;27078;46.428;6.256;2024-01-10T05:31:43;30.98;;;16.42;;
41333;SDS011;27078;46.428;6.256;2024-01-10T05:34:08;31.05;;;16.42;;
41333;SDS011;27078;46.428;6.256;2024-01-10T05:36:34;28.95;;;15.55;;
41333;SDS011;27078;46.428;6.256;2024-01-10T05:38:59;31.08;;;15.90;;
41333;SDS011;27078;46.428;6.256;2024-01-10T05:41:25;32.92;;;16.95;;
41333;SDS011;27078;46.428;6.256;2024-01-10T05:43:50;31.50;;;16.65;;
41333;SDS011;27078;46.428;6.256;2024-01-10T05:46:15;34.53;;;17.25;;
41333;SDS011;27078;46.428;6.256;2024-01-10T05:48:41;34.58;;;17.30;;
41333;SDS011;27078;46.428;6.256;2024-01-10T05:51:06;32.83;;;16.65;;
41333;SDS011;27078;46.428;6.256;2024-01-10T05:53:32;34.85;;;17.38;;
41333;SDS011;27078;46.428;6.256;2024-01-10T05:55:58;33.13;;;17.40;;
41333;SDS011;27078;46.428;6.256;2024-01-10T05:58:23;31.83;;;16.60;;
41333;SDS011;27078;46.428;6.256;2024-01-10T06:00:48;33.08;;;17.65;;
41333;SDS011;27078;46.428;6.256;2024-01-10T06:03:14;36.00;;;17.90;;
41333;SDS011;27078;46.428;6.256;2024-01-10T06:05:39;34.65;;;18.05;;
41333;SDS011;27078;46.428;6.256;2024-01-10T06:08:05;34.03;;;17.33;;
41333;SDS011;27078;46.428;6.256;2024-01-10T06:10:30;32.90;;;16.50;;
41333;SDS011;27078;46.428;6.256;2024-01-10T06:12:56;33.65;;;17.33;;
41333;SDS011;27078;46.428;6.256;2024-01-10T06:15:21;35.65;;;17.83;;
41333;SDS011;27078;46.428;6.256;2024-01-10T06:17:46;35.15;;;17.75;;
41333;SDS011;27078;46.428;6.256;2024-01-10T06:20:13;33.85;;;17.30;;
41333;SDS011;27078;46.428;6.256;2024-01-10T06:22:38;33.30;;;17.85;;
41333;SDS011;27078;46.428;6.256;2024-01-10T06:25:04;35.05;;;17.20;;
41333;SDS011;27078;46.428;6.256;2024-01-10T06:27:29;34.20;;;17.75;;
41333;SDS011;27078;46.428;6.256;2024-01-10T06:29:55;35.53;;;17.42;;
41333;SDS011;27078;46.428;6.256;2024-01-10T06:32:20;31.75;;;17.25;;
41333;SDS011;27078;46.428;6.256;2024-01-10T06:34:46;33.67;;;17.77;;
41333;SDS011;27078;46.428;6.256;2024-01-10T06:37:11;34.35;;;18.00;;
41333;SDS011;27078;46.428;6.256;2024-01-10T06:39:36;37.15;;;18.42;;
41333;SDS011;27078;46.428;6.256;2024-01-10T06:42:02;33.20;;;17.63;;
41333;SDS011;27078;46.428;6.256;2024-01-10T06:44:31;34.53;;;18.00;;
41333;SDS011;27078;46.428;6.256;2024-01-10T06:46:56;32.42;;;17.17;;
41333;SDS011;27078;46.428;6.256;2024-01-10T06:49:22;34.38;;;17.95;;
41333;SDS011;27078;46.428;6.256;2024-01-10T06:51:47;36.13;;;17.88;;
41333;SDS011;27078;46.428;6.256;2024-01-10T06:54:13;35.35;;;18.00;;
41333;SDS011;27078;46.428;6.256;2024-01-10T06:56:39;35.67;;;18.13;;
41333;SDS011;27078;46.428;6.256;2024-01-10T06:59:04;36.47;;;18.88;;
41333;SDS011;27078;46.428;6.256;2024-01-10T07:01:30;37.50;;;18.63;;
41333;SDS011;27078;46.428;6.256;2024-01-10T07:03:55;37.70;;;19.88;;
41333;SDS011;27078;46.428;6.256;2024-01-10T07:06:21;39.30;;;20.77;;
41333;SDS011;27078;46.428;6.256;2024-01-10T07:08:47;36.30;;;17.83;;
41333;SDS011;27078;46.428;6.256;2024-01-10T07:11:14;38.15;;;18.48;;
41333;SDS011;27078;46.428;6.256;2024-01-10T07:13:40;36.95;;;19.40;;
41333;SDS011;27078;46.428;6.256;2024-01-10T07:16:06;35.28;;;17.65;;
41333;SDS011;27078;46.428;6.256;2024-01-10T07:18:32;34.55;;;17.70;;
41333;SDS011;27078;46.428;6.256;2024-01-10T07:20:57;35.63;;;19.05;;
41333;SDS011;27078;46.428;6.256;2024-01-10T07:23:22;35.83;;;18.17;;
41333;SDS011;27078;46.428;6.256;2024-01-10T07:25:48;38.60;;;19.38;;
41333;SDS011;27078;46.428;6.256;2024-01-10T07:28:14;38.15;;;20.00;;
41333;SDS011;27078;46.428;6.256;2024-01-10T07:30:40;38.85;;;20.55;;
41333;SDS011;27078;46.428;6.256;2024-01-10T07:33:05;39.90;;;20.60;;
41333;SDS011;27078;46.428;6.256;2024-01-10T07:35:32;42.55;;;21.00;;
41333;SDS011;27078;46.428;6.256;2024-01-10T07:37:58;43.67;;;21.88;;
41333;SDS011;27078;46.428;6.256;2024-01-10T07:40:23;44.53;;;22.65;;
41333;SDS011;27078;46.428;6.256;2024-01-10T07:42:49;42.45;;;20.77;;
41333;SDS011;27078;46.428;6.256;2024-01-10T07:45:14;41.38;;;20.27;;
41333;SDS011;27078;46.428;6.256;2024-01-10T07:47:39;45.65;;;22.60;;
41333;SDS011;27078;46.428;6.256;2024-01-10T07:50:05;45.95;;;23.00;;
41333;SDS011;27078;46.428;6.256;2024-01-10T07:52:31;42.55;;;21.42;;
41333;SDS011;27078;46.428;6.256;2024-01-10T07:54:57;43.45;;;21.58;;
41333;SDS011;27078;46.428;6.256;2024-01-10T07:57:23;42.47;;;20.75;;
41333;SDS011;27078;46.428;6.256;2024-01-10T07:59:48;41.05;;;21.00;;
41333;SDS011;27078;46.428;6.256;2024-01-10T08:02:13;39.85;;;19.65;;
41333;SDS011;27078;46.428;6.256;2024-01-10T08:04:39;39.03;;;20.38;;
41333;SDS011;27078;46.428;6.256;2024-01-10T08:07:04;39.88;;;19.42;;
41333;SDS011;27078;46.428;6.256;2024-01-10T08:09:29;37.92;;;19.00;;
41333;SDS011;27078;46.428;6.256;2024-01-10T08:11:55;41.20;;;19.08;;
41333;SDS011;27078;46.428;6.256;2024-01-10T08:14:20;38.30;;;20.08;;
41333;SDS011;27078;46.428;6.256;2024-01-10T08:16:46;36.45;;;19.25;;
41333;SDS011;27078;46.428;6.256;2024-01-10T08:19:11;38.00;;;19.48;;
41333;SDS011;27078;46.428;6.256;2024-01-10T08:21:36;37.05;;;19.02;;
41333;SDS011;27078;46.428;6.256;2024-01-10T08:24:02;34.20;;;17.38;;
41333;SDS011;27078;46.428;6.256;2024-01-10T08:26:28;35.88;;;18.85;;
41333;SDS011;27078;46.428;6.256;2024-01-10T08:28:53;31.60;;;16.70;;
41333;SDS011;27078;46.428;6.256;2024-01-10T08:31:19;35.58;;;18.27;;
41333;SDS011;27078;46.428;6.256;2024-01-10T08:33:44;36.00;;;18.60;;
41333;SDS011;27078;46.428;6.256;2024-01-10T08:36:12;37.53;;;18.73;;
41333;SDS011;27078;46.428;6.256;2024-01-10T08:38:39;38.00;;;19.30;;
41333;SDS011;27078;46.428;6.256;2024-01-10T08:41:05;35.08;;;18.60;;
41333;SDS011;27078;46.428;6.256;2024-01-10T08:43:30;33.60;;;18.27;;
41333;SDS011;27078;46.428;6.256;2024-01-10T08:45:58;33.22;;;18.30;;
41333;SDS011;27078;46.428;6.256;2024-01-10T08:48:24;33.22;;;16.65;;
41333;SDS011;27078;46.428;6.256;2024-01-10T08:50:50;32.75;;;17.20;;
41333;SDS011;27078;46.428;6.256;2024-01-10T08:53:15;34.95;;;17.25;;
41333;SDS011;27078;46.428;6.256;2024-01-10T08:55:41;36.20;;;17.90;;
41333;SDS011;27078;46.428;6.256;2024-01-10T08:58:07;36.03;;;18.13;;
41333;SDS011;27078;46.428;6.256;2024-01-10T09:00:32;34.90;;;17.38;;
41333;SDS011;27078;46.428;6.256;2024-01-10T09:02:58;37.78;;;18.30;;
41333;SDS011;27078;46.428;6.256;2024-01-10T09:05:23;38.00;;;19.45;;
41333;SDS011;27078;46.428;6.256;2024-01-10T09:07:49;37.65;;;18.58;;
41333;SDS011;27078;46.428;6.256;2024-01-10T09:10:15;37.63;;;19.50;;
41333;SDS011;27078;46.428;6.256;2024-01-10T09:12:41;38.85;;;19.45;;
41333;SDS011;27078;46.428;6.256;2024-01-10T09:15:10;40.38;;;20.02;;
41333;SDS011;27078;46.428;6.256;2024-01-10T09:17:38;39.55;;;20.25;;
41333;SDS011;27078;46.428;6.256;2024-01-10T09:20:04;38.65;;;19.85;;
41333;SDS011;27078;46.428;6.256;2024-01-10T09:22:30;41.28;;;19.85;;
41333;SDS011;27078;46.428;6.256;2024-01-10T09:24:55;40.28;;;20.58;;
41333;SDS011;27078;46.428;6.256;2024-01-10T09:27:20;42.15;;;21.83;;
41333;SDS011;27078;46.428;6.256;2024-01-10T09:29:47;43.05;;;20.85;;
41333;SDS011;27078;46.428;6.256;2024-01-10T09:32:13;35.45;;;18.58;;
41333;SDS011;27078;46.428;6.256;2024-01-10T09:34:39;37.22;;;18.65;;
41333;SDS011;27078;46.428;6.256;2024-01-10T09:37:04;43.33;;;21.27;;
41333;SDS011;27078;46.428;6.256;2024-01-10T09:39:30;38.25;;;19.35;;
41333;SDS011;27078;46.428;6.256;2024-01-10T09:41:55;37.80;;;20.00;;
41333;SDS011;27078;46.428;6.256;2024-01-10T09:44:23;36.20;;;18.95;;
41333;SDS011;27078;46.428;6.256;2024-01-10T09:46:50;36.67;;;18.80;;
41333;SDS011;27078;46.428;6.256;2024-01-10T09:49:17;36.30;;;18.75;;
41333;SDS011;27078;46.428;6.256;2024-01-10T09:51:43;38.80;;;20.17;;
41333;SDS011;27078;46.428;6.256;2024-01-10T09:54:12;38.53;;;19.25;;
41333;SDS011;27078;46.428;6.256;2024-01-10T09:56:41;41.15;;;20.70;;
41333;SDS011;27078;46.428;6.256;2024-01-10T09:59:07;39.22;;;20.20;;
41333;SDS011;27078;46.428;6.256;2024-01-10T10:01:36;39.00;;;19.95;;
41333;SDS011;27078;46.428;6.256;2024-01-10T10:04:04;42.15;;;21.30;;
41333;SDS011;27078;46.428;6.256;2024-01-10T10:06:32;42.67;;;20.63;;
41333;SDS011;27078;46.428;6.256;2024-01-10T10:08:59;45.10;;;21.33;;
41333;SDS011;27078;46.428;6.256;2024-01-10T10:11:24;37.67;;;19.58;;
41333;SDS011;27078;46.428;6.256;2024-01-10T10:13:50;40.08;;;20.02;;
41333;SDS011;27078;46.428;6.256;2024-01-10T10:16:15;40.78;;;20.52;;
41333;SDS011;27078;46.428;6.256;2024-01-10T10:18:49;42.80;;;20.63;;
41333;SDS011;27078;46.428;6.256;2024-01-10T10:21:15;41.88;;;21.23;;
41333;SDS011;27078;46.428;6.256;2024-01-10T10:23:42;38.25;;;19.60;;
41333;SDS011;27078;46.428;6.256;2024-01-10T10:26:12;40.85;;;21.17;;
41333;SDS011;27078;46.428;6.256;2024-01-10T10:28:43;41.92;;;21.67;;
41333;SDS011;27078;46.428;6.256;2024-01-10T10:31:09;43.17;;;21.33;;
41333;SDS011;27078;46.428;6.256;2024-01-10T10:33:35;40.58;;;20.85;;
41333;SDS011;27078;46.428;6.256;2024-01-10T10:36:01;40.83;;;21.10;;
41333;SDS011;27078;46.428;6.256;2024-01-10T10:38:28;46.60;;;23.85;;
41333;SDS011;27078;46.428;6.256;2024-01-10T10:40:53;49.45;;;25.10;;
41333;SDS011;27078;46.428;6.256;2024-01-10T10:43:20;44.28;;;22.20;;
41333;SDS011;27078;46.428;6.256;2024-01-10T10:45:49;39.83;;;20.63;;
41333;SDS011;27078;46.428;6.256;2024-01-10T10:48:18;42.72;;;21.85;;
41333;SDS011;27078;46.428;6.256;2024-01-10T10:53:27;42.00;;;21.27;;
41333;SDS011;27078;46.428;6.256;2024-01-10T10:55:54;42.72;;;21.60;;
41333;SDS011;27078;46.428;6.256;2024-01-10T10:58:22;42.25;;;21.67;;
41333;SDS011;27078;46.428;6.256;2024-01-10T11:00:47;37.78;;;20.75;;
41333;SDS011;27078;46.428;6.256;2024-01-10T11:03:13;40.17;;;20.58;;
41333;SDS011;27078;46.428;6.256;2024-01-10T11:05:41;43.55;;;22.10;;
41333;SDS011;27078;46.428;6.256;2024-01-10T11:08:07;45.08;;;22.23;;
41333;SDS011;27078;46.428;6.256;2024-01-10T11:10:36;45.25;;;23.42;;
41333;SDS011;27078;46.428;6.256;2024-01-10T11:22:09;42.30;;;20.67;;
41333;SDS011;27078;46.428;6.256;2024-01-10T11:24:46;42.10;;;21.55;;
41333;SDS011;27078;46.428;6.256;2024-01-10T11:27:12;39.13;;;21.40;;
41333;SDS011;27078;46.428;6.256;2024-01-10T11:29:39;41.50;;;21.35;;
41333;SDS011;27078;46.428;6.256;2024-01-10T11:32:14;40.38;;;22.08;;
41333;SDS011;27078;46.428;6.256;2024-01-10T11:34:56;43.53;;;22.08;;
41333;SDS011;27078;46.428;6.256;2024-01-10T11:37:23;43.45;;;22.02;;
41333;SDS011;27078;46.428;6.256;2024-01-10T11:39:53;45.97;;;23.90;;
41333;SDS011;27078;46.428;6.256;2024-01-10T11:45:08;43.85;;;22.45;;
41333;SDS011;27078;46.428;6.256;2024-01-10T11:47:34;43.55;;;23.10;;
41333;SDS011;27078;46.428;6.256;2024-01-10T11:50:02;43.47;;;22.80;;
41333;SDS011;27078;46.428;6.256;2024-01-10T11:52:31;42.15;;;22.15;;
41333;SDS011;27078;46.428;6.256;2024-01-10T11:54:59;43.42;;;21.92;;
41333;SDS011;27078;46.428;6.256;2024-01-10T11:57:28;41.72;;;22.08;;
41333;SDS011;27078;46.428;6.256;2024-01-10T11:59:54;45.40;;;22.75;;
41333;SDS011;27078;46.428;6.256;2024-01-10T12:02:21;44.45;;;23.98;;
41333;SDS011;27078;46.428;6.256;2024-01-10T12:04:50;42.63;;;22.33;;
41333;SDS011;27078;46.428;6.256;2024-01-10T12:07:16;43.08;;;22.92;;
41333;SDS011;27078;46.428;6.256;2024-01-10T12:09:42;42.17;;;22.27;;
41333;SDS011;27078;46.428;6.256;2024-01-10T12:12:08;42.10;;;22.65;;
41333;SDS011;27078;46.428;6.256;2024-01-10T12:14:35;42.13;;;22.02;;
41333;SDS011;27078;46.428;6.256;2024-01-10T12:17:01;49.80;;;23.65;;
41333;SDS011;27078;46.428;6.256;2024-01-10T12:19:29;66.38;;;29.88;;
41333;SDS011;27078;46.428;6.256;2024-01-10T12:21:55;46.78;;;24.67;;
41333;SDS011;27078;46.428;6.256;2024-01-10T12:24:21;43.58;;;23.20;;
41333;SDS011;27078;46.428;6.256;2024-01-10T12:26:47;46.42;;;23.20;;
41333;SDS011;27078;46.428;6.256;2024-01-10T12:29:13;43.75;;;22.60;;
41333;SDS011;27078;46.428;6.256;2024-01-10T12:31:42;42.38;;;22.42;;
41333;SDS011;27078;46.428;6.256;2024-01-10T12:34:10;43.60;;;22.33;;
41333;SDS011;27078;46.428;6.256;2024-01-10T12:36:36;46.92;;;22.77;;
41333;SDS011;27078;46.428;6.256;2024-01-10T12:39:01;43.22;;;22.30;;
41333;SDS011;27078;46.428;6.256;2024-01-10T12:41:28;43.50;;;22.13;;
41333;SDS011;27078;46.428;6.256;2024-01-10T12:43:53;42.00;;;21.45;;
41333;SDS011;27078;46.428;6.256;2024-01-10T12:46:22;41.63;;;21.02;;
41333;SDS011;27078;46.428;6.256;2024-01-10T12:49:03;38.50;;;20.52;;
41333;SDS011;27078;46.428;6.256;2024-01-10T12:51:30;41.70;;;21.25;;
41333;SDS011;27078;46.428;6.256;2024-01-10T12:53:57;38.25;;;19.80;;
41333;SDS011;27078;46.428;6.256;2024-01-10T12:56:24;41.13;;;21.23;;
41333;SDS011;27078;46.428;6.256;2024-01-10T12:58:50;38.92;;;20.50;;
41333;SDS011;27078;46.428;6.256;2024-01-10T13:01:15;40.03;;;20.55;;
41333;SDS011;27078;46.428;6.256;2024-01-10T13:03:41;36.67;;;20.58;;
41333;SDS011;27078;46.428;6.256;2024-01-10T13:06:06;39.30;;;20.98;;
41333;SDS011;27078;46.428;6.256;2024-01-10T13:08:31;38.45;;;21.05;;
41333;SDS011;27078;46.428;6.256;2024-01-10T13:10:57;39.67;;;20.95;;
41333;SDS011;27078;46.428;6.256;2024-01-10T13:13:22;39.53;;;21.13;;
41333;SDS011;27078;46.428;6.256;2024-01-10T13:15:48;39.35;;;21.50;;
41333;SDS011;27078;46.428;6.256;2024-01-10T13:18:14;39.92;;;22.33;;
41333;SDS011;27078;46.428;6.256;2024-01-10T13:20:40;41.55;;;21.95;;
41333;SDS011;27078;46.428;6.256;2024-01-10T13:23:06;41.25;;;22.30;;
41333;SDS011;27078;46.428;6.256;2024-01-10T13:25:32;41.45;;;21.80;;
41333;SDS011;27078;46.428;6.256;2024-01-10T13:27:58;38.35;;;21.33;;
41333;SDS011;27078;46.428;6.256;2024-01-10T13:30:24;38.92;;;20.90;;
41333;SDS011;27078;46.428;6.256;2024-01-10T13:32:50;38.58;;;21.65;;
41333;SDS011;27078;46.428;6.256;2024-01-10T13:35:15;41.55;;;21.88;;
41333;SDS011;27078;46.428;6.256;2024-01-10T13:37:44;43.15;;;22.45;;
41333;SDS011;27078;46.428;6.256;2024-01-10T13:40:11;39.35;;;20.77;;
41333;SDS011;27078;46.428;6.256;2024-01-10T13:42:38;41.30;;;21.98;;
41333;SDS011;27078;46.428;6.256;2024-01-10T13:45:08;43.97;;;23.02;;
41333;SDS011;27078;46.428;6.256;2024-01-10T13:47:37;42.70;;;22.33;;
41333;SDS011;27078;46.428;6.256;2024-01-10T13:50:03;43.20;;;23.13;;
41333;SDS011;27078;46.428;6.256;2024-01-10T13:52:29;43.60;;;23.13;;
41333;SDS011;27078;46.428;6.256;2024-01-10T13:54:54;44.22;;;22.58;;
41333;SDS011;27078;46.428;6.256;2024-01-10T13:57:21;41.47;;;22.40;;
41333;SDS011;27078;46.428;6.256;2024-01-10T13:59:46;43.92;;;22.67;;
41333;SDS011;27078;46.428;6.256;2024-01-10T14:02:12;39.97;;;22.00;;
41333;SDS011;27078;46.428;6.256;2024-01-10T14:04:38;45.22;;;23.48;;
41333;SDS011;27078;46.428;6.256;2024-01-10T14:07:04;46.97;;;24.17;;
41333;SDS011;27078;46.428;6.256;2024-01-10T14:09:32;46.78;;;24.05;;
41333;SDS011;27078;46.428;6.256;2024-01-10T14:11:58;48.30;;;24.10;;
41333;SDS011;27078;46.428;6.256;2024-01-10T14:14:23;45.28;;;23.67;;
41333;SDS011;27078;46.428;6.256;2024-01-10T14:16:48;43.15;;;22.60;;
41333;SDS011;27078;46.428;6.256;2024-01-10T14:19:14;44.47;;;22.92;;
41333;SDS011;27078;46.428;6.256;2024-01-10T14:21:42;36.92;;;19.63;;
41333;SDS011;27078;46.428;6.256;2024-01-10T14:24:07;43.15;;;22.85;;
41333;SDS011;27078;46.428;6.256;2024-01-10T14:26:32;44.75;;;23.08;;
41333;SDS011;27078;46.428;6.256;2024-01-10T14:28:58;45.13;;;23.38;;